createdAt,value
2022-12-07T00:01:34.468Z,13.07
2022-12-07T00:04:06.051Z,14.03
2022-12-07T00:06:37.823Z,14.73
2022-12-07T00:09:10.611Z,12.53
2022-12-07T00:11:37.310Z,14.33
2022-12-07T00:14:09.270Z,13.10
2022-12-07T00:16:36.072Z,13.50
2022-12-07T00:19:03.970Z,13.40
2022-12-07T00:21:36.051Z,12.70
2022-12-07T00:24:04.373Z,14.37
2022-12-07T00:26:39.669Z,14.20
2022-12-07T00:29:10.482Z,14.23
2022-12-07T00:31:40.221Z,13.43
2022-12-07T00:34:08.463Z,14.23
2022-12-07T00:36:35.094Z,13.70
2022-12-07T00:39:03.336Z,13.47
2022-12-07T00:41:31.081Z,14.63
2022-12-07T00:43:58.449Z,13.40
2022-12-07T00:46:25.939Z,15.67
2022-12-07T00:48:53.986Z,14.83
2022-12-07T00:51:23.738Z,14.20
2022-12-07T00:53:50.360Z,14.00
2022-12-07T00:56:28.239Z,13.67
2022-12-07T00:58:57.061Z,12.40
2022-12-07T01:01:25.661Z,14.10
2022-12-07T01:03:52.686Z,13.37
2022-12-07T01:06:21.158Z,14.90
2022-12-07T01:08:47.901Z,16.67
2022-12-07T01:11:17.325Z,15.73
2022-12-07T01:13:45.263Z,15.40
2022-12-07T01:16:14.932Z,13.83
2022-12-07T01:18:41.817Z,12.93
2022-12-07T01:21:17.446Z,14.10
2022-12-07T01:23:44.854Z,13.00
2022-12-07T01:26:14.288Z,13.37
2022-12-07T01:28:41.145Z,13.80
2022-12-07T01:31:16.083Z,12.97
2022-12-07T01:33:48.967Z,13.07
2022-12-07T01:36:19.700Z,12.90
2022-12-07T01:38:47.566Z,14.20
2022-12-07T01:54:23.259Z,17.67
2022-12-07T01:56:56.007Z,14.90
2022-12-07T01:59:26.475Z,14.33
2022-12-07T02:01:55.528Z,13.47
2022-12-07T02:04:23.742Z,13.87
2022-12-07T02:06:51.986Z,13.47
2022-12-07T02:09:18.769Z,13.17
2022-12-07T02:11:45.457Z,13.30
2022-12-07T02:14:12.191Z,12.17
2022-12-07T02:16:44.106Z,12.83
2022-12-07T02:19:32.045Z,13.33
2022-12-07T02:22:14.285Z,12.97
2022-12-07T02:25:02.288Z,14.33
2022-12-07T02:27:40.903Z,13.10
2022-12-07T02:30:22.221Z,12.67
2022-12-07T02:33:06.982Z,12.57
2022-12-07T02:35:44.607Z,12.90
2022-12-07T02:38:36.880Z,13.50
2022-12-07T02:41:26.913Z,12.93
2022-12-07T02:43:58.604Z,14.17
2022-12-07T02:46:30.988Z,12.77
2022-12-07T02:49:00.653Z,12.93
2022-12-07T02:51:31.597Z,14.00
2022-12-07T02:53:58.417Z,13.80
2022-12-07T02:56:49.115Z,13.87
2022-12-07T02:59:54.329Z,12.57
2022-12-07T03:02:32.730Z,11.07
2022-12-07T03:05:11.469Z,13.37
2022-12-07T03:07:50.724Z,12.53
2022-12-07T03:10:46.539Z,13.23
2022-12-07T03:13:23.514Z,12.47
2022-12-07T03:16:24.014Z,13.87
2022-12-07T03:18:56.519Z,12.50
2022-12-07T03:21:36.373Z,12.50
2022-12-07T03:24:10.563Z,12.70
2022-12-07T03:26:42.252Z,13.27
2022-12-07T03:29:18.222Z,11.57
2022-12-07T03:31:53.367Z,12.57
2022-12-07T03:34:44.082Z,12.53
2022-12-07T03:37:24.973Z,12.77
2022-12-07T03:40:03.641Z,13.57
2022-12-07T03:42:32.237Z,14.67
2022-12-07T03:44:59.070Z,13.70
2022-12-07T03:47:36.742Z,13.43
2022-12-07T03:50:03.509Z,14.00
2022-12-07T03:52:42.129Z,13.23
2022-12-07T03:55:41.484Z,12.53
2022-12-07T03:58:12.205Z,12.17
2022-12-07T04:00:39.253Z,11.80
2022-12-07T04:03:05.919Z,12.23
2022-12-07T04:05:32.759Z,12.20
2022-12-07T04:07:59.389Z,12.63
2022-12-07T04:10:26.156Z,12.57
2022-12-07T04:12:52.776Z,11.90
2022-12-07T04:15:19.367Z,13.90
2022-12-07T04:17:45.957Z,12.93
2022-12-07T04:20:13.080Z,12.60
2022-12-07T04:22:39.763Z,11.47
2022-12-07T04:25:06.917Z,11.43
2022-12-07T04:27:33.661Z,12.80
2022-12-07T04:30:00.777Z,14.20
2022-12-07T04:32:27.743Z,13.90
2022-12-07T04:34:56.036Z,12.67
2022-12-07T04:37:23.413Z,12.60
2022-12-07T04:39:50.066Z,12.87
2022-12-07T04:42:16.700Z,14.07
2022-12-07T04:44:43.300Z,11.23
2022-12-07T04:47:09.989Z,11.77
2022-12-07T04:49:36.686Z,12.97
2022-12-07T04:52:03.764Z,11.23
2022-12-07T04:54:30.368Z,11.30
2022-12-07T04:56:57.127Z,11.37
2022-12-07T04:59:23.742Z,12.53
2022-12-07T05:01:50.546Z,10.83
2022-12-07T05:04:18.758Z,11.53
2022-12-07T05:06:45.459Z,11.57
2022-12-07T05:09:13.159Z,10.13
2022-12-07T05:11:39.715Z,10.50
2022-12-07T05:14:18.292Z,11.73
2022-12-07T05:16:46.749Z,11.03
2022-12-07T05:19:13.708Z,13.20
2022-12-07T05:21:40.983Z,10.10
2022-12-07T05:24:09.423Z,12.70
2022-12-07T05:26:36.079Z,10.83
2022-12-07T05:29:02.786Z,12.23
2022-12-07T05:31:29.667Z,10.77
2022-12-07T05:33:56.650Z,10.73
2022-12-07T05:36:23.850Z,11.87
2022-12-07T05:38:50.621Z,11.33
2022-12-07T05:41:37.918Z,11.17
2022-12-07T05:44:05.334Z,10.43
2022-12-07T05:46:32.256Z,12.47
2022-12-07T05:48:59.040Z,10.77
2022-12-07T05:51:25.648Z,12.87
2022-12-07T05:53:52.274Z,12.00
2022-12-07T05:56:19.021Z,10.20
2022-12-07T05:59:04.514Z,10.63
2022-12-07T06:01:31.302Z,12.10
2022-12-07T06:03:57.969Z,11.67
2022-12-07T06:06:24.699Z,12.43
2022-12-07T06:08:52.023Z,11.77
2022-12-07T06:11:37.159Z,10.67
2022-12-07T06:14:03.803Z,12.53
2022-12-07T06:16:30.603Z,10.77
2022-12-07T06:18:57.248Z,14.67
2022-12-07T06:21:23.877Z,13.67
2022-12-07T06:23:50.688Z,15.37
2022-12-07T06:26:17.396Z,13.57
2022-12-07T06:28:44.027Z,12.13
2022-12-07T06:31:13.852Z,12.07
2022-12-07T06:33:41.535Z,13.30
2022-12-07T06:36:08.576Z,13.10
2022-12-07T06:38:35.265Z,13.10
2022-12-07T06:41:02.880Z,14.23
2022-12-07T06:43:30.849Z,13.87
2022-12-07T06:45:57.602Z,13.77
2022-12-07T06:48:24.364Z,13.90
2022-12-07T06:50:54.812Z,13.47
2022-12-07T06:53:22.520Z,13.50
2022-12-07T06:55:49.152Z,14.60
2022-12-07T06:58:15.917Z,14.07
2022-12-07T07:00:42.611Z,14.20
2022-12-07T07:03:09.328Z,14.20
2022-12-07T07:05:36.302Z,14.37
2022-12-07T07:10:50.719Z,15.73
2022-12-07T07:13:17.308Z,18.07
2022-12-07T07:15:43.924Z,14.93
2022-12-07T07:18:10.937Z,15.20
2022-12-07T07:20:37.999Z,14.03
2022-12-07T07:23:04.683Z,13.80
2022-12-07T07:25:32.600Z,14.10
2022-12-07T07:27:59.212Z,14.00
2022-12-07T07:30:26.799Z,12.10
2022-12-07T07:33:00.735Z,14.43
2022-12-07T07:35:29.230Z,14.63
2022-12-07T07:37:56.412Z,15.67
2022-12-07T07:40:23.350Z,13.63
2022-12-07T07:42:51.519Z,13.73
2022-12-07T07:45:19.178Z,14.13
2022-12-07T07:47:45.864Z,14.67
2022-12-07T07:50:12.582Z,17.40
2022-12-07T07:52:39.588Z,13.83
2022-12-07T07:55:08.580Z,14.43
2022-12-07T07:57:38.645Z,15.20
2022-12-07T08:00:07.017Z,15.33
2022-12-07T08:02:33.691Z,14.63
2022-12-07T08:05:00.346Z,15.17
2022-12-07T08:07:28.856Z,14.13
2022-12-07T08:09:55.593Z,16.10
2022-12-07T08:12:22.232Z,14.97
2022-12-07T08:14:48.979Z,15.43
2022-12-07T08:17:15.708Z,15.63
2022-12-07T08:19:42.385Z,14.73
2022-12-07T08:22:09.111Z,16.37
2022-12-07T08:24:36.920Z,14.87
2022-12-07T08:27:04.644Z,15.27
2022-12-07T08:29:31.232Z,14.67
2022-12-07T08:31:57.798Z,14.03
2022-12-07T08:34:24.435Z,17.63
2022-12-07T08:36:51.330Z,13.77
2022-12-07T08:39:33.408Z,16.30
2022-12-07T08:42:00.138Z,15.33
2022-12-07T08:44:29.824Z,14.90
2022-12-07T08:47:04.008Z,15.83
2022-12-07T08:49:39.538Z,17.90
2022-12-07T08:52:06.757Z,19.43
2022-12-07T08:54:36.534Z,16.83
2022-12-07T08:57:03.938Z,15.87
2022-12-07T08:59:31.269Z,15.47
2022-12-07T09:01:58.035Z,17.80
2022-12-07T09:04:24.695Z,14.60
2022-12-07T09:06:51.745Z,16.10
2022-12-07T09:09:18.584Z,15.70
2022-12-07T09:11:46.398Z,14.20
2022-12-07T09:14:13.611Z,17.97
2022-12-07T09:16:40.746Z,17.13
2022-12-07T09:19:08.776Z,15.43
2022-12-07T09:21:35.412Z,15.50
2022-12-07T09:24:02.017Z,17.73
2022-12-07T09:26:28.605Z,15.03
2022-12-07T09:28:55.186Z,13.03
2022-12-07T09:31:23.842Z,13.90
2022-12-07T09:34:09.288Z,14.53
2022-12-07T09:36:35.933Z,12.80
2022-12-07T09:39:04.006Z,15.03
2022-12-07T09:41:32.423Z,17.33
2022-12-07T09:44:24.820Z,13.40
2022-12-07T09:46:54.018Z,17.87
2022-12-07T09:49:25.081Z,15.47
2022-12-07T09:52:26.426Z,16.27
2022-12-07T09:54:53.306Z,13.37
2022-12-07T09:57:31.142Z,17.50
2022-12-07T10:00:02.507Z,17.03
2022-12-07T10:02:38.120Z,13.53
2022-12-07T10:05:07.293Z,12.63
2022-12-07T10:07:34.188Z,11.63
2022-12-07T10:10:04.200Z,24.10
2022-12-07T10:12:30.790Z,18.03
2022-12-07T10:15:18.800Z,16.70
2022-12-07T10:17:50.758Z,17.70
2022-12-07T10:20:28.428Z,15.00
2022-12-07T10:23:06.518Z,13.77
2022-12-07T10:25:36.588Z,14.30
2022-12-07T10:28:13.273Z,12.43
2022-12-07T10:31:00.540Z,13.67
2022-12-07T10:33:39.350Z,12.23
2022-12-07T10:36:20.389Z,14.47
2022-12-07T10:38:51.134Z,14.53
2022-12-07T10:41:17.902Z,13.80
2022-12-07T10:43:49.089Z,13.07
2022-12-07T10:46:47.846Z,17.53
2022-12-07T10:50:05.475Z,13.80
2022-12-07T10:53:00.140Z,16.00
2022-12-07T10:55:34.227Z,17.83
2022-12-07T10:58:19.305Z,16.00
2022-12-07T11:01:04.097Z,14.93
2022-12-07T11:03:39.417Z,12.40
2022-12-07T11:06:43.559Z,14.17
2022-12-07T11:09:19.162Z,13.50
2022-12-07T11:11:45.717Z,12.07
2022-12-07T11:14:21.899Z,10.97
2022-12-07T11:16:58.740Z,11.83
2022-12-07T11:19:42.821Z,11.80
2022-12-07T11:22:24.331Z,11.40
2022-12-07T11:25:20.294Z,9.33
2022-12-07T11:27:59.168Z,9.37
2022-12-07T11:30:38.423Z,9.57
2022-12-07T11:33:16.763Z,8.40
2022-12-07T11:36:09.995Z,11.30
2022-12-07T11:38:45.414Z,10.17
2022-12-07T11:41:14.995Z,12.03
2022-12-07T11:43:54.360Z,10.93
2022-12-07T11:46:26.015Z,10.27
2022-12-07T11:49:15.320Z,9.87
2022-12-07T11:51:45.595Z,8.93
2022-12-07T11:54:18.978Z,10.20
2022-12-07T11:56:49.073Z,10.83
2022-12-07T11:59:26.690Z,9.53
2022-12-07T12:01:58.479Z,10.93
2022-12-07T12:04:33.758Z,8.87
2022-12-07T12:10:07.177Z,9.27
2022-12-07T12:16:20.231Z,6.80
2022-12-07T12:19:13.107Z,9.57
2022-12-07T12:21:40.512Z,8.13
2022-12-07T12:24:22.634Z,8.40
2022-12-07T12:26:59.145Z,9.77
2022-12-07T12:29:34.703Z,12.23
2022-12-07T12:32:15.259Z,10.93
2022-12-07T12:35:00.304Z,12.77
2022-12-07T12:37:35.814Z,10.90
2022-12-07T12:40:17.602Z,12.27
2022-12-07T12:42:57.699Z,10.67
2022-12-07T12:45:32.854Z,11.10
2022-12-07T12:48:04.435Z,11.57
2022-12-07T12:50:38.822Z,9.17
2022-12-07T12:53:24.080Z,12.20
2022-12-07T12:56:04.267Z,13.73
2022-12-07T12:58:37.732Z,11.20
2022-12-07T13:01:37.471Z,10.03
2022-12-07T13:04:16.054Z,10.17
2022-12-07T13:06:43.460Z,14.27
2022-12-07T13:09:43.020Z,13.03
2022-12-07T13:12:15.960Z,10.30
2022-12-07T13:15:00.356Z,8.17
2022-12-07T13:17:33.171Z,10.33
2022-12-07T13:20:11.616Z,9.53
2022-12-07T13:22:45.243Z,9.70
2022-12-07T13:25:45.985Z,8.80
2022-12-07T13:28:18.987Z,12.63
2022-12-07T13:31:01.148Z,8.47
2022-12-07T13:33:30.280Z,9.07
2022-12-07T13:36:00.321Z,10.20
2022-12-07T13:38:33.338Z,12.77
2022-12-07T13:41:17.258Z,12.67
2022-12-07T13:43:57.512Z,9.37
2022-12-07T13:46:51.739Z,9.47
2022-12-07T13:49:24.868Z,9.13
2022-12-07T13:51:52.747Z,9.10
2022-12-07T13:54:20.250Z,9.87
2022-12-07T13:56:53.607Z,10.23
2022-12-07T13:59:23.736Z,9.33
2022-12-07T14:01:52.477Z,10.90
2022-12-07T14:04:40.862Z,9.60
2022-12-07T14:07:24.463Z,9.93
2022-12-07T14:10:02.436Z,9.50
2022-12-07T14:12:31.168Z,8.97
2022-12-07T14:14:59.469Z,9.63
2022-12-07T14:17:28.108Z,9.77
2022-12-07T14:20:00.927Z,8.20
2022-12-07T14:22:36.067Z,8.10
2022-12-07T14:25:14.558Z,8.87
2022-12-07T14:27:53.919Z,8.37
2022-12-07T14:30:20.797Z,8.17
2022-12-07T14:32:51.861Z,8.47
2022-12-07T14:35:19.740Z,9.33
2022-12-07T14:37:48.661Z,9.90
2022-12-07T14:40:28.379Z,10.33
2022-12-07T14:43:12.756Z,11.57
2022-12-07T14:45:40.775Z,10.27
2022-12-07T14:53:55.397Z,12.67
2022-12-07T14:56:24.830Z,10.60
2022-12-07T14:58:51.494Z,11.20
2022-12-07T15:01:18.307Z,11.90
2022-12-07T15:03:45.004Z,11.23
2022-12-07T15:06:15.832Z,11.97
2022-12-07T15:08:42.458Z,10.47
2022-12-07T15:11:14.532Z,10.70
2022-12-07T15:13:59.826Z,10.43
2022-12-07T15:16:26.671Z,11.10
2022-12-07T15:19:26.279Z,12.30
2022-12-07T15:21:41.322Z,12.47
2022-12-07T15:24:12.574Z,14.33
2022-12-07T15:26:40.855Z,12.93
2022-12-07T15:29:08.180Z,11.60
2022-12-07T15:34:22.040Z,13.70
2022-12-07T15:36:48.685Z,13.17
2022-12-07T15:39:15.646Z,9.63
2022-12-07T15:41:42.402Z,10.43
2022-12-07T15:44:31.973Z,10.87
2022-12-07T15:46:58.921Z,10.27
2022-12-07T15:49:26.222Z,9.77
2022-12-07T15:51:53.348Z,10.63
2022-12-07T15:54:25.533Z,9.40
2022-12-07T15:56:52.395Z,7.53
2022-12-07T15:59:19.452Z,8.50
2022-12-07T16:01:46.569Z,9.00
2022-12-07T16:04:13.400Z,9.80
2022-12-07T16:06:40.607Z,10.00
2022-12-07T16:09:07.931Z,8.53
2022-12-07T16:11:35.286Z,7.70
2022-12-07T16:14:01.936Z,10.70
2022-12-07T16:16:29.098Z,9.50
2022-12-07T16:18:56.284Z,8.17
2022-12-07T16:21:25.455Z,8.73
2022-12-07T16:23:52.811Z,9.97
2022-12-07T16:26:22.416Z,10.97
2022-12-07T16:28:53.238Z,10.27
2022-12-07T16:31:26.334Z,10.13
2022-12-07T16:33:58.283Z,11.90
2022-12-07T16:37:02.683Z,13.57
2022-12-07T16:39:14.396Z,12.83
2022-12-07T16:41:41.076Z,10.10
2022-12-07T16:44:11.385Z,8.87
2022-12-07T16:46:40.506Z,7.90
2022-12-07T16:49:17.022Z,13.53
2022-12-07T16:51:48.277Z,13.87
2022-12-07T16:54:14.917Z,11.70
2022-12-07T16:56:42.404Z,10.83
2022-12-07T16:59:09.663Z,9.53
2022-12-07T17:01:37.164Z,8.73
2022-12-07T17:04:05.344Z,11.00
2022-12-07T17:06:32.575Z,11.27
2022-12-07T17:08:59.523Z,10.03
2022-12-07T17:11:34.197Z,9.27
2022-12-07T17:14:19.782Z,10.20
2022-12-07T17:16:46.642Z,11.07
2022-12-07T17:19:15.735Z,10.57
2022-12-07T17:21:44.078Z,10.37
2022-12-07T17:24:13.239Z,10.87
2022-12-07T17:26:40.468Z,11.40
2022-12-07T17:29:09.569Z,11.50
2022-12-07T17:31:36.812Z,14.43
2022-12-07T17:34:04.028Z,15.40
2022-12-07T17:36:32.590Z,17.73
2022-12-07T17:38:59.433Z,12.20
2022-12-07T17:41:47.167Z,11.17
2022-12-07T17:44:16.820Z,11.20
2022-12-07T17:46:44.742Z,13.10
2022-12-07T17:49:11.942Z,10.80
2022-12-07T17:51:57.250Z,16.37
2022-12-07T17:54:23.992Z,14.80
2022-12-07T17:56:50.947Z,10.43
2022-12-07T18:00:05.731Z,15.17
2022-12-07T18:02:32.438Z,11.17
2022-12-07T18:04:59.076Z,11.07
2022-12-07T18:07:25.691Z,11.10
2022-12-07T18:09:52.441Z,10.83
2022-12-07T18:12:19.049Z,10.80
2022-12-07T18:14:45.659Z,10.50
2022-12-07T18:17:12.253Z,18.73
2022-12-07T18:19:38.906Z,48.47
2022-12-07T18:22:06.085Z,42.47
2022-12-07T18:24:36.839Z,38.50
2022-12-07T18:27:05.407Z,22.77
2022-12-07T18:29:32.091Z,24.10
2022-12-07T18:31:59.009Z,20.27
2022-12-07T18:34:28.584Z,23.40
2022-12-07T18:36:55.182Z,23.33
2022-12-07T18:39:21.796Z,24.77
2022-12-07T18:41:48.769Z,29.03
2022-12-07T18:44:17.022Z,25.43
2022-12-07T18:46:43.856Z,26.10
2022-12-07T18:49:14.278Z,31.27
2022-12-07T18:51:41.890Z,26.03
2022-12-07T18:54:09.135Z,26.27
2022-12-07T18:56:35.835Z,24.97
2022-12-07T18:59:23.357Z,25.33
2022-12-07T19:01:53.197Z,24.83
2022-12-07T19:04:43.499Z,29.47
2022-12-07T19:07:10.163Z,27.57
2022-12-07T19:09:36.987Z,29.13
2022-12-07T19:12:05.498Z,30.10
2022-12-07T19:14:35.233Z,32.43
2022-12-07T19:17:06.086Z,31.17
2022-12-07T19:19:38.198Z,29.47
2022-12-07T19:22:05.941Z,30.03
2022-12-07T19:24:43.520Z,27.70
2022-12-07T19:27:10.999Z,28.17
2022-12-07T19:29:49.610Z,27.13
2022-12-07T19:32:18.204Z,23.67
2022-12-07T19:34:46.659Z,23.37
2022-12-07T19:37:14.242Z,23.03
2022-12-07T19:39:43.726Z,22.87
2022-12-07T19:42:11.394Z,21.67
2022-12-07T19:44:38.378Z,21.13
2022-12-07T19:47:05.675Z,20.23
2022-12-07T19:49:34.715Z,21.87
2022-12-07T19:52:05.000Z,23.07
2022-12-07T19:54:32.839Z,21.93
2022-12-07T19:56:59.837Z,21.43
2022-12-07T19:59:29.848Z,23.30
2022-12-07T20:01:59.858Z,22.33
2022-12-07T20:04:29.626Z,23.40
2022-12-07T20:06:59.730Z,21.90
2022-12-07T20:09:26.685Z,21.63
2022-12-07T20:12:12.082Z,19.87
2022-12-07T20:14:38.957Z,19.57
2022-12-07T20:17:06.187Z,19.03
2022-12-07T20:19:35.656Z,18.47
2022-12-07T20:22:02.298Z,20.50
2022-12-07T20:24:29.017Z,19.67
2022-12-07T20:26:55.655Z,20.27
2022-12-07T20:29:25.568Z,20.13
2022-12-07T20:31:56.544Z,18.83
2022-12-07T20:34:26.657Z,19.60
2022-12-07T20:36:54.833Z,20.40
2022-12-07T20:39:23.732Z,18.63
2022-12-07T20:42:09.573Z,19.60
2022-12-07T20:44:36.323Z,18.10
2022-12-07T20:47:04.704Z,19.57
2022-12-07T20:49:31.431Z,19.13
2022-12-07T20:51:58.077Z,20.00
2022-12-07T20:54:25.866Z,19.60
2022-12-07T20:56:52.566Z,19.37
2022-12-07T20:59:19.247Z,17.47
2022-12-07T21:01:46.092Z,18.43
2022-12-07T21:04:14.044Z,17.77
2022-12-07T21:06:40.745Z,16.17
2022-12-07T21:09:07.994Z,16.10
2022-12-07T21:11:34.710Z,16.30
2022-12-07T21:14:01.814Z,14.83
2022-12-07T21:16:30.739Z,15.93
2022-12-07T21:19:02.327Z,17.10
2022-12-07T21:21:30.498Z,20.50
2022-12-07T21:24:02.323Z,19.20
2022-12-07T21:26:33.728Z,15.87
2022-12-07T21:29:01.249Z,16.90
2022-12-07T21:31:28.061Z,16.70
2022-12-07T21:33:54.811Z,15.77
2022-12-07T21:36:23.866Z,15.50
2022-12-07T21:38:51.417Z,16.67
2022-12-07T21:41:22.731Z,14.30
2022-12-07T21:43:50.218Z,14.30
2022-12-07T21:46:19.152Z,14.37
2022-12-07T21:49:00.607Z,14.57
2022-12-07T21:51:29.584Z,14.70
2022-12-07T21:53:57.807Z,14.53
2022-12-07T21:56:26.765Z,19.43
2022-12-07T21:58:55.288Z,18.80
2022-12-07T22:01:28.422Z,17.30
2022-12-07T22:03:55.159Z,17.57
2022-12-07T22:06:25.592Z,17.03
2022-12-07T22:08:52.872Z,18.37
2022-12-07T22:11:19.813Z,15.80
2022-12-07T22:14:10.262Z,16.63
2022-12-07T22:16:38.080Z,17.50
2022-12-07T22:19:04.991Z,17.20
2022-12-07T22:21:35.088Z,17.60
2022-12-07T22:24:02.487Z,18.90
2022-12-07T22:26:29.223Z,19.77
2022-12-07T22:28:55.938Z,15.80
2022-12-07T22:31:23.769Z,14.37
2022-12-07T22:33:50.775Z,14.83
2022-12-07T22:36:18.232Z,13.43
2022-12-07T22:38:45.871Z,14.30
2022-12-07T22:41:27.249Z,13.03
2022-12-07T22:43:54.574Z,13.10
2022-12-07T22:46:22.022Z,13.97
2022-12-07T22:48:48.777Z,13.10
2022-12-07T22:51:31.723Z,14.20
2022-12-07T22:54:00.165Z,12.80
2022-12-07T22:56:28.243Z,11.43
2022-12-07T22:58:55.574Z,13.57
2022-12-07T23:01:23.558Z,13.33
2022-12-07T23:03:50.964Z,12.87
2022-12-07T23:06:21.807Z,13.57
2022-12-07T23:08:49.424Z,13.60
2022-12-07T23:11:38.822Z,15.73
2022-12-07T23:14:12.447Z,13.93
2022-12-07T23:16:39.421Z,13.77
2022-12-07T23:19:06.303Z,14.23
2022-12-07T23:21:33.466Z,14.40
2022-12-07T23:24:00.078Z,12.20
2022-12-07T23:26:26.762Z,15.00
2022-12-07T23:28:53.675Z,16.97
2022-12-07T23:31:21.544Z,16.20
2022-12-07T23:33:48.301Z,16.30
2022-12-07T23:36:24.455Z,15.97
2022-12-07T23:38:53.378Z,16.77
2022-12-07T23:41:23.526Z,16.80
2022-12-07T23:43:50.169Z,15.00
2022-12-07T23:46:19.676Z,14.87
2022-12-07T23:48:47.785Z,14.37
2022-12-07T23:51:15.463Z,14.67
2022-12-07T23:53:44.929Z,14.60
2022-12-07T23:56:13.274Z,15.07
2022-12-07T23:58:39.985Z,15.00
